sensor_id;sensor_type;location;lat;lon;timestamp;P1;durP1;ratioP1;P2;durP2;ratioP2
2576;SDS011;1298;51.252;6.802;2023-07-31T00:02:36;602.60;;;552.50;;
2576;SDS011;1298;51.252;6.802;2023-07-31T00:05:23;614.25;;;563.10;;
2576;SDS011;1298;51.252;6.802;2023-07-31T00:08:08;713.90;;;661.17;;
2576;SDS011;1298;51.252;6.802;2023-07-31T00:10:54;621.33;;;570.22;;
2576;SDS011;1298;51.252;6.802;2023-07-31T00:13:40;625.65;;;574.75;;
2576;SDS011;1298;51.252;6.802;2023-07-31T00:16:25;626.45;;;575.05;;
2576;SDS011;1298;51.252;6.802;2023-07-31T00:19:10;632.05;;;581.00;;
2576;SDS011;1298;51.252;6.802;2023-07-31T00:21:57;728.88;;;676.00;;
2576;SDS011;1298;51.252;6.802;2023-07-31T00:24:43;716.75;;;663.75;;
2576;SDS011;1298;51.252;6.802;2023-07-31T00:27:28;622.78;;;572.00;;
2576;SDS011;1298;51.252;6.802;2023-07-31T00:30:14;725.15;;;670.80;;
2576;SDS011;1298;51.252;6.802;2023-07-31T00:33:00;707.88;;;655.38;;
2576;SDS011;1298;51.252;6.802;2023-07-31T00:35:45;633.60;;;582.10;;
2576;SDS011;1298;51.252;6.802;2023-07-31T00:38:34;621.05;;;570.25;;
2576;SDS011;1298;51.252;6.802;2023-07-31T00:41:19;636.22;;;584.88;;
2576;SDS011;1298;51.252;6.802;2023-07-31T00:44:04;624.47;;;573.53;;
2576;SDS011;1298;51.252;6.802;2023-07-31T00:46:50;706.22;;;653.45;;
2576;SDS011;1298;51.252;6.802;2023-07-31T00:49:35;624.13;;;573.08;;
2576;SDS011;1298;51.252;6.802;2023-07-31T00:52:21;697.67;;;645.10;;
2576;SDS011;1298;51.252;6.802;2023-07-31T00:55:08;624.83;;;574.05;;
2576;SDS011;1298;51.252;6.802;2023-07-31T00:57:54;631.55;;;580.55;;
2576;SDS011;1298;51.252;6.802;2023-07-31T01:00:40;625.35;;;574.05;;
2576;SDS011;1298;51.252;6.802;2023-07-31T01:03:25;635.65;;;584.58;;
2576;SDS011;1298;51.252;6.802;2023-07-31T01:06:14;623.88;;;572.88;;
2576;SDS011;1298;51.252;6.802;2023-07-31T01:09:03;720.00;;;667.13;;
2576;SDS011;1298;51.252;6.802;2023-07-31T01:11:56;626.85;;;575.58;;
2576;SDS011;1298;51.252;6.802;2023-07-31T01:15:01;622.88;;;571.75;;
2576;SDS011;1298;51.252;6.802;2023-07-31T01:17:48;645.92;;;594.47;;
2576;SDS011;1298;51.252;6.802;2023-07-31T01:20:33;695.95;;;643.33;;
2576;SDS011;1298;51.252;6.802;2023-07-31T01:23:35;750.42;;;695.92;;
2576;SDS011;1298;51.252;6.802;2023-07-31T01:26:41;632.88;;;581.22;;
2576;SDS011;1298;51.252;6.802;2023-07-31T01:29:32;629.42;;;578.42;;
2576;SDS011;1298;51.252;6.802;2023-07-31T01:32:23;634.85;;;583.60;;
2576;SDS011;1298;51.252;6.802;2023-07-31T01:35:11;631.13;;;579.63;;
2576;SDS011;1298;51.252;6.802;2023-07-31T01:37:57;635.28;;;583.83;;
2576;SDS011;1298;51.252;6.802;2023-07-31T01:40:42;638.70;;;587.33;;
2576;SDS011;1298;51.252;6.802;2023-07-31T01:43:29;640.08;;;588.70;;
2576;SDS011;1298;51.252;6.802;2023-07-31T01:46:15;715.00;;;661.72;;
2576;SDS011;1298;51.252;6.802;2023-07-31T01:49:00;640.60;;;588.97;;
2576;SDS011;1298;51.252;6.802;2023-07-31T01:51:46;753.42;;;699.33;;
2576;SDS011;1298;51.252;6.802;2023-07-31T01:54:31;629.38;;;578.50;;
2576;SDS011;1298;51.252;6.802;2023-07-31T01:57:17;645.67;;;594.10;;
2576;SDS011;1298;51.252;6.802;2023-07-31T02:00:04;643.28;;;591.45;;
2576;SDS011;1298;51.252;6.802;2023-07-31T02:02:50;642.17;;;589.97;;
2576;SDS011;1298;51.252;6.802;2023-07-31T02:05:36;649.50;;;597.83;;
2576;SDS011;1298;51.252;6.802;2023-07-31T02:08:28;634.13;;;583.03;;
2576;SDS011;1298;51.252;6.802;2023-07-31T02:11:13;724.13;;;670.53;;
2576;SDS011;1298;51.252;6.802;2023-07-31T02:13:58;637.08;;;585.42;;
2576;SDS011;1298;51.252;6.802;2023-07-31T02:16:45;654.22;;;602.00;;
2576;SDS011;1298;51.252;6.802;2023-07-31T02:19:31;631.70;;;580.05;;
2576;SDS011;1298;51.252;6.802;2023-07-31T02:22:16;717.53;;;664.10;;
2576;SDS011;1298;51.252;6.802;2023-07-31T02:25:02;642.88;;;591.05;;
2576;SDS011;1298;51.252;6.802;2023-07-31T02:27:47;723.53;;;669.70;;
2576;SDS011;1298;51.252;6.802;2023-07-31T02:30:33;651.08;;;598.97;;
2576;SDS011;1298;51.252;6.802;2023-07-31T02:33:20;657.30;;;605.03;;
2576;SDS011;1298;51.252;6.802;2023-07-31T02:36:05;651.65;;;599.70;;
2576;SDS011;1298;51.252;6.802;2023-07-31T02:38:51;637.95;;;586.33;;
2576;SDS011;1298;51.252;6.802;2023-07-31T02:41:36;642.10;;;590.25;;
2576;SDS011;1298;51.252;6.802;2023-07-31T02:44:22;645.83;;;594.08;;
2576;SDS011;1298;51.252;6.802;2023-07-31T02:47:07;714.38;;;661.50;;
2576;SDS011;1298;51.252;6.802;2023-07-31T02:49:54;659.03;;;607.28;;
2576;SDS011;1298;51.252;6.802;2023-07-31T02:52:32;645.25;;;593.55;;
2576;SDS011;1298;51.252;6.802;2023-07-31T02:55:17;653.80;;;602.00;;
2576;SDS011;1298;51.252;6.802;2023-07-31T02:58:02;649.35;;;597.58;;
2576;SDS011;1298;51.252;6.802;2023-07-31T03:00:48;759.42;;;704.67;;
2576;SDS011;1298;51.252;6.802;2023-07-31T03:03:33;643.05;;;591.65;;
2576;SDS011;1298;51.252;6.802;2023-07-31T03:06:21;760.30;;;706.35;;
2576;SDS011;1298;51.252;6.802;2023-07-31T03:09:06;751.55;;;697.65;;
2576;SDS011;1298;51.252;6.802;2023-07-31T03:11:52;650.47;;;598.70;;
2576;SDS011;1298;51.252;6.802;2023-07-31T03:14:37;662.38;;;610.60;;
2576;SDS011;1298;51.252;6.802;2023-07-31T03:17:23;659.67;;;608.08;;
2576;SDS011;1298;51.252;6.802;2023-07-31T03:20:08;668.10;;;616.28;;
2576;SDS011;1298;51.252;6.802;2023-07-31T03:22:56;663.72;;;612.00;;
2576;SDS011;1298;51.252;6.802;2023-07-31T03:25:41;657.83;;;606.30;;
2576;SDS011;1298;51.252;6.802;2023-07-31T03:28:40;773.22;;;718.53;;
2576;SDS011;1298;51.252;6.802;2023-07-31T03:31:26;768.22;;;713.75;;
2576;SDS011;1298;51.252;6.802;2023-07-31T03:34:12;671.47;;;619.50;;
2576;SDS011;1298;51.252;6.802;2023-07-31T03:36:57;670.92;;;618.90;;
2576;SDS011;1298;51.252;6.802;2023-07-31T03:39:44;680.38;;;628.08;;
2576;SDS011;1298;51.252;6.802;2023-07-31T03:42:30;676.95;;;624.65;;
2576;SDS011;1298;51.252;6.802;2023-07-31T03:45:15;665.83;;;613.78;;
2576;SDS011;1298;51.252;6.802;2023-07-31T03:48:01;682.88;;;630.25;;
2576;SDS011;1298;51.252;6.802;2023-07-31T03:50:47;669.25;;;617.25;;
2576;SDS011;1298;51.252;6.802;2023-07-31T03:53:32;781.47;;;726.58;;
2576;SDS011;1298;51.252;6.802;2023-07-31T03:56:19;664.53;;;612.70;;
2576;SDS011;1298;51.252;6.802;2023-07-31T03:59:05;668.42;;;616.10;;
2576;SDS011;1298;51.252;6.802;2023-07-31T04:01:50;772.97;;;718.55;;
2576;SDS011;1298;51.252;6.802;2023-07-31T04:04:36;779.97;;;724.95;;
2576;SDS011;1298;51.252;6.802;2023-07-31T04:07:21;673.72;;;621.47;;
2576;SDS011;1298;51.252;6.802;2023-07-31T04:10:07;669.03;;;617.38;;
2576;SDS011;1298;51.252;6.802;2023-07-31T04:12:54;685.20;;;632.65;;
2576;SDS011;1298;51.252;6.802;2023-07-31T04:15:40;693.33;;;640.70;;
2576;SDS011;1298;51.252;6.802;2023-07-31T04:18:25;679.97;;;627.83;;
2576;SDS011;1298;51.252;6.802;2023-07-31T04:21:11;766.40;;;711.70;;
2576;SDS011;1298;51.252;6.802;2023-07-31T04:23:57;671.50;;;619.30;;
2576;SDS011;1298;51.252;6.802;2023-07-31T04:26:42;687.80;;;635.03;;
2576;SDS011;1298;51.252;6.802;2023-07-31T04:29:29;679.17;;;627.15;;
2576;SDS011;1298;51.252;6.802;2023-07-31T04:32:15;767.92;;;714.03;;
2576;SDS011;1298;51.252;6.802;2023-07-31T04:35:00;790.53;;;735.53;;
2576;SDS011;1298;51.252;6.802;2023-07-31T04:37:46;675.92;;;623.38;;
2576;SDS011;1298;51.252;6.802;2023-07-31T04:40:32;760.03;;;705.75;;
2576;SDS011;1298;51.252;6.802;2023-07-31T04:43:17;679.60;;;627.42;;
2576;SDS011;1298;51.252;6.802;2023-07-31T04:46:04;680.05;;;627.85;;
2576;SDS011;1298;51.252;6.802;2023-07-31T04:48:50;678.95;;;626.75;;
2576;SDS011;1298;51.252;6.802;2023-07-31T04:51:35;677.22;;;625.42;;
2576;SDS011;1298;51.252;6.802;2023-07-31T04:54:21;685.28;;;633.03;;
2576;SDS011;1298;51.252;6.802;2023-07-31T04:57:07;685.28;;;632.85;;
2576;SDS011;1298;51.252;6.802;2023-07-31T04:59:52;782.83;;;728.22;;
2576;SDS011;1298;51.252;6.802;2023-07-31T05:02:39;705.00;;;651.83;;
2576;SDS011;1298;51.252;6.802;2023-07-31T05:05:25;692.47;;;640.20;;
2576;SDS011;1298;51.252;6.802;2023-07-31T05:08:10;710.92;;;657.83;;
2576;SDS011;1298;51.252;6.802;2023-07-31T05:10:56;798.03;;;742.53;;
2576;SDS011;1298;51.252;6.802;2023-07-31T05:13:41;711.38;;;658.38;;
2576;SDS011;1298;51.252;6.802;2023-07-31T05:16:27;814.60;;;759.10;;
2576;SDS011;1298;51.252;6.802;2023-07-31T05:19:14;712.22;;;659.17;;
2576;SDS011;1298;51.252;6.802;2023-07-31T05:21:59;724.47;;;671.00;;
2576;SDS011;1298;51.252;6.802;2023-07-31T05:24:47;714.28;;;661.15;;
2576;SDS011;1298;51.252;6.802;2023-07-31T05:27:32;703.85;;;651.15;;
2576;SDS011;1298;51.252;6.802;2023-07-31T05:30:18;707.10;;;654.05;;
2576;SDS011;1298;51.252;6.802;2023-07-31T05:33:05;793.25;;;738.05;;
2576;SDS011;1298;51.252;6.802;2023-07-31T05:35:52;712.00;;;658.72;;
2576;SDS011;1298;51.252;6.802;2023-07-31T05:38:37;814.08;;;758.08;;
2576;SDS011;1298;51.252;6.802;2023-07-31T05:41:23;695.00;;;642.13;;
2576;SDS011;1298;51.252;6.802;2023-07-31T05:44:08;709.88;;;656.70;;
2576;SDS011;1298;51.252;6.802;2023-07-31T05:46:54;818.53;;;762.67;;
2576;SDS011;1298;51.252;6.802;2023-07-31T05:49:40;702.55;;;649.50;;
2576;SDS011;1298;51.252;6.802;2023-07-31T05:52:27;815.90;;;760.30;;
2576;SDS011;1298;51.252;6.802;2023-07-31T05:55:14;708.13;;;655.47;;
2576;SDS011;1298;51.252;6.802;2023-07-31T05:58:00;725.05;;;671.67;;
2576;SDS011;1298;51.252;6.802;2023-07-31T06:00:45;721.75;;;668.67;;
2576;SDS011;1298;51.252;6.802;2023-07-31T06:03:31;734.22;;;680.70;;
2576;SDS011;1298;51.252;6.802;2023-07-31T06:06:17;714.33;;;661.28;;
2576;SDS011;1298;51.252;6.802;2023-07-31T06:09:04;719.55;;;665.63;;
2576;SDS011;1298;51.252;6.802;2023-07-31T06:11:49;799.03;;;743.42;;
2576;SDS011;1298;51.252;6.802;2023-07-31T06:14:35;724.75;;;671.35;;
2576;SDS011;1298;51.252;6.802;2023-07-31T06:17:20;706.33;;;653.40;;
2576;SDS011;1298;51.252;6.802;2023-07-31T06:20:06;711.45;;;658.30;;
2576;SDS011;1298;51.252;6.802;2023-07-31T06:22:53;810.85;;;755.20;;
2576;SDS011;1298;51.252;6.802;2023-07-31T06:25:40;719.95;;;666.88;;
2576;SDS011;1298;51.252;6.802;2023-07-31T06:28:27;710.30;;;657.30;;
2576;SDS011;1298;51.252;6.802;2023-07-31T06:31:13;695.28;;;642.40;;
2576;SDS011;1298;51.252;6.802;2023-07-31T06:33:59;797.47;;;742.35;;
2576;SDS011;1298;51.252;6.802;2023-07-31T06:36:44;708.22;;;655.28;;
2576;SDS011;1298;51.252;6.802;2023-07-31T06:39:30;692.92;;;640.33;;
2576;SDS011;1298;51.252;6.802;2023-07-31T06:42:17;691.95;;;639.60;;
2576;SDS011;1298;51.252;6.802;2023-07-31T06:45:03;704.03;;;651.30;;
2576;SDS011;1298;51.252;6.802;2023-07-31T06:47:49;685.05;;;632.45;;
2576;SDS011;1298;51.252;6.802;2023-07-31T06:50:35;688.22;;;636.05;;
2576;SDS011;1298;51.252;6.802;2023-07-31T06:53:20;696.13;;;643.45;;
2576;SDS011;1298;51.252;6.802;2023-07-31T06:56:06;689.28;;;636.50;;
2576;SDS011;1298;51.252;6.802;2023-07-31T06:58:53;767.65;;;713.55;;
2576;SDS011;1298;51.252;6.802;2023-07-31T07:01:40;670.15;;;618.30;;
2576;SDS011;1298;51.252;6.802;2023-07-31T07:04:25;776.85;;;722.60;;
2576;SDS011;1298;51.252;6.802;2023-07-31T07:07:11;694.40;;;642.03;;
2576;SDS011;1298;51.252;6.802;2023-07-31T07:09:56;686.97;;;633.78;;
2576;SDS011;1298;51.252;6.802;2023-07-31T07:12:43;691.92;;;639.55;;
2576;SDS011;1298;51.252;6.802;2023-07-31T07:15:30;685.50;;;633.50;;
2576;SDS011;1298;51.252;6.802;2023-07-31T07:18:15;690.40;;;638.20;;
2576;SDS011;1298;51.252;6.802;2023-07-31T07:21:01;671.90;;;619.95;;
2576;SDS011;1298;51.252;6.802;2023-07-31T07:23:47;691.05;;;639.05;;
2576;SDS011;1298;51.252;6.802;2023-07-31T07:26:32;685.35;;;633.17;;
2576;SDS011;1298;51.252;6.802;2023-07-31T07:29:18;781.33;;;726.95;;
2576;SDS011;1298;51.252;6.802;2023-07-31T07:32:05;674.30;;;622.60;;
2576;SDS011;1298;51.252;6.802;2023-07-31T07:34:51;755.85;;;702.05;;
2576;SDS011;1298;51.252;6.802;2023-07-31T07:37:37;679.22;;;627.50;;
2576;SDS011;1298;51.252;6.802;2023-07-31T07:40:22;775.42;;;720.85;;
2576;SDS011;1298;51.252;6.802;2023-07-31T07:43:08;751.72;;;698.22;;
2576;SDS011;1298;51.252;6.802;2023-07-31T07:45:54;750.30;;;696.58;;
2576;SDS011;1298;51.252;6.802;2023-07-31T07:48:40;784.30;;;729.38;;
2576;SDS011;1298;51.252;6.802;2023-07-31T07:51:26;750.83;;;696.85;;
2576;SDS011;1298;51.252;6.802;2023-07-31T07:54:13;766.35;;;712.20;;
2576;SDS011;1298;51.252;6.802;2023-07-31T07:57:00;743.90;;;690.42;;
2576;SDS011;1298;51.252;6.802;2023-07-31T07:59:46;661.40;;;609.97;;
2576;SDS011;1298;51.252;6.802;2023-07-31T08:02:31;653.80;;;602.35;;
2576;SDS011;1298;51.252;6.802;2023-07-31T08:05:18;660.00;;;608.78;;
2576;SDS011;1298;51.252;6.802;2023-07-31T08:08:04;656.33;;;604.83;;
2576;SDS011;1298;51.252;6.802;2023-07-31T08:10:49;661.92;;;610.45;;
2576;SDS011;1298;51.252;6.802;2023-07-31T08:13:35;655.90;;;604.92;;
2576;SDS011;1298;51.252;6.802;2023-07-31T08:16:21;656.58;;;605.10;;
2576;SDS011;1298;51.252;6.802;2023-07-31T08:19:07;660.53;;;609.15;;
2576;SDS011;1298;51.252;6.802;2023-07-31T08:21:54;672.47;;;620.97;;
2576;SDS011;1298;51.252;6.802;2023-07-31T08:24:39;676.17;;;624.67;;
2576;SDS011;1298;51.252;6.802;2023-07-31T08:27:25;696.50;;;644.38;;
2576;SDS011;1298;51.252;6.802;2023-07-31T08:30:11;689.38;;;637.42;;
2576;SDS011;1298;51.252;6.802;2023-07-31T08:32:57;668.30;;;617.10;;
2576;SDS011;1298;51.252;6.802;2023-07-31T08:35:42;679.95;;;628.13;;
2576;SDS011;1298;51.252;6.802;2023-07-31T08:38:29;667.97;;;616.47;;
2576;SDS011;1298;51.252;6.802;2023-07-31T08:41:15;684.60;;;632.85;;
2576;SDS011;1298;51.252;6.802;2023-07-31T08:44:01;705.88;;;653.47;;
2576;SDS011;1298;51.252;6.802;2023-07-31T08:46:47;677.47;;;625.70;;
2576;SDS011;1298;51.252;6.802;2023-07-31T08:49:33;678.28;;;626.58;;
2576;SDS011;1298;51.252;6.802;2023-07-31T08:52:21;678.55;;;627.05;;
2576;SDS011;1298;51.252;6.802;2023-07-31T08:55:08;670.90;;;619.30;;
2576;SDS011;1298;51.252;6.802;2023-07-31T08:57:54;745.80;;;692.53;;
2576;SDS011;1298;51.252;6.802;2023-07-31T09:00:41;781.13;;;726.90;;
2576;SDS011;1298;51.252;6.802;2023-07-31T09:03:28;658.25;;;606.97;;
2576;SDS011;1298;51.252;6.802;2023-07-31T09:06:18;754.60;;;701.13;;
2576;SDS011;1298;51.252;6.802;2023-07-31T09:09:06;673.15;;;621.33;;
2576;SDS011;1298;51.252;6.802;2023-07-31T09:11:54;673.00;;;621.05;;
2576;SDS011;1298;51.252;6.802;2023-07-31T09:14:41;671.65;;;619.97;;
2576;SDS011;1298;51.252;6.802;2023-07-31T09:17:28;655.15;;;603.58;;
2576;SDS011;1298;51.252;6.802;2023-07-31T09:20:15;668.65;;;617.38;;
2576;SDS011;1298;51.252;6.802;2023-07-31T09:23:05;657.03;;;605.83;;
2576;SDS011;1298;51.252;6.802;2023-07-31T09:25:52;662.75;;;611.45;;
2576;SDS011;1298;51.252;6.802;2023-07-31T09:28:39;651.65;;;600.78;;
2576;SDS011;1298;51.252;6.802;2023-07-31T09:31:31;744.45;;;690.80;;
2576;SDS011;1298;51.252;6.802;2023-07-31T09:34:18;654.15;;;603.10;;
2576;SDS011;1298;51.252;6.802;2023-07-31T09:37:04;659.72;;;608.42;;
2576;SDS011;1298;51.252;6.802;2023-07-31T09:39:49;747.88;;;694.42;;
2576;SDS011;1298;51.252;6.802;2023-07-31T09:42:38;660.90;;;609.75;;
2576;SDS011;1298;51.252;6.802;2023-07-31T09:45:25;660.63;;;609.42;;
2576;SDS011;1298;51.252;6.802;2023-07-31T09:48:12;669.20;;;617.72;;
2576;SDS011;1298;51.252;6.802;2023-07-31T09:50:59;754.13;;;699.97;;
2576;SDS011;1298;51.252;6.802;2023-07-31T09:53:49;671.15;;;619.30;;
2576;SDS011;1298;51.252;6.802;2023-07-31T09:56:35;675.13;;;623.22;;
2576;SDS011;1298;51.252;6.802;2023-07-31T09:59:23;670.22;;;618.78;;
2576;SDS011;1298;51.252;6.802;2023-07-31T10:02:12;670.53;;;619.17;;
2576;SDS011;1298;51.252;6.802;2023-07-31T10:05:05;669.58;;;617.72;;
2576;SDS011;1298;51.252;6.802;2023-07-31T10:07:53;663.58;;;612.33;;
2576;SDS011;1298;51.252;6.802;2023-07-31T10:10:40;672.85;;;621.15;;
2576;SDS011;1298;51.252;6.802;2023-07-31T10:13:27;665.97;;;614.38;;
2576;SDS011;1298;51.252;6.802;2023-07-31T10:16:13;749.30;;;695.80;;
2576;SDS011;1298;51.252;6.802;2023-07-31T10:19:02;739.13;;;686.33;;
2576;SDS011;1298;51.252;6.802;2023-07-31T10:21:48;742.70;;;689.25;;
2576;SDS011;1298;51.252;6.802;2023-07-31T10:24:34;674.35;;;622.67;;
2576;SDS011;1298;51.252;6.802;2023-07-31T10:27:21;684.83;;;632.38;;
2576;SDS011;1298;51.252;6.802;2023-07-31T10:30:08;683.47;;;631.17;;
2576;SDS011;1298;51.252;6.802;2023-07-31T10:32:56;745.72;;;692.42;;
2576;SDS011;1298;51.252;6.802;2023-07-31T10:35:44;782.10;;;727.60;;
2576;SDS011;1298;51.252;6.802;2023-07-31T10:38:29;693.25;;;640.70;;
2576;SDS011;1298;51.252;6.802;2023-07-31T10:41:14;701.92;;;649.33;;
2576;SDS011;1298;51.252;6.802;2023-07-31T10:44:00;713.30;;;660.58;;
2576;SDS011;1298;51.252;6.802;2023-07-31T10:46:46;789.10;;;733.70;;
2576;SDS011;1298;51.252;6.802;2023-07-31T10:49:32;755.70;;;701.47;;
2576;SDS011;1298;51.252;6.802;2023-07-31T10:52:20;745.10;;;691.33;;
2576;SDS011;1298;51.252;6.802;2023-07-31T10:55:14;829.95;;;773.85;;
2576;SDS011;1298;51.252;6.802;2023-07-31T10:58:07;724.00;;;670.53;;
2576;SDS011;1298;51.252;6.802;2023-07-31T11:00:55;728.45;;;674.88;;
2576;SDS011;1298;51.252;6.802;2023-07-31T11:03:42;712.70;;;659.75;;
2576;SDS011;1298;51.252;6.802;2023-07-31T11:06:29;726.88;;;673.72;;
2576;SDS011;1298;51.252;6.802;2023-07-31T11:09:16;815.92;;;760.15;;
2576;SDS011;1298;51.252;6.802;2023-07-31T11:12:02;738.85;;;685.05;;
2576;SDS011;1298;51.252;6.802;2023-07-31T11:14:53;826.00;;;769.95;;
2576;SDS011;1298;51.252;6.802;2023-07-31T11:17:39;733.30;;;680.03;;
2576;SDS011;1298;51.252;6.802;2023-07-31T11:20:25;741.78;;;688.10;;
2576;SDS011;1298;51.252;6.802;2023-07-31T11:23:11;811.08;;;755.88;;
2576;SDS011;1298;51.252;6.802;2023-07-31T11:26:00;746.75;;;692.67;;
2576;SDS011;1298;51.252;6.802;2023-07-31T11:28:46;826.05;;;770.15;;
2576;SDS011;1298;51.252;6.802;2023-07-31T11:31:32;722.92;;;670.00;;
2576;SDS011;1298;51.252;6.802;2023-07-31T11:34:23;737.13;;;683.75;;
2576;SDS011;1298;51.252;6.802;2023-07-31T11:37:09;725.40;;;672.33;;
2576;SDS011;1298;51.252;6.802;2023-07-31T11:39:58;741.78;;;688.40;;
2576;SDS011;1298;51.252;6.802;2023-07-31T11:42:46;805.63;;;750.50;;
2576;SDS011;1298;51.252;6.802;2023-07-31T11:45:31;827.22;;;771.45;;
2576;SDS011;1298;51.252;6.802;2023-07-31T11:48:19;750.58;;;696.63;;
2576;SDS011;1298;51.252;6.802;2023-07-31T11:51:10;848.85;;;792.58;;
2576;SDS011;1298;51.252;6.802;2023-07-31T11:53:58;751.40;;;697.63;;
2576;SDS011;1298;51.252;6.802;2023-07-31T11:56:45;755.78;;;701.85;;
2576;SDS011;1298;51.252;6.802;2023-07-31T11:59:33;836.08;;;779.95;;
2576;SDS011;1298;51.252;6.802;2023-07-31T12:02:19;738.67;;;685.65;;
2576;SDS011;1298;51.252;6.802;2023-07-31T12:05:05;763.78;;;709.67;;
2576;SDS011;1298;51.252;6.802;2023-07-31T12:07:52;772.70;;;718.03;;
2576;SDS011;1298;51.252;6.802;2023-07-31T12:10:39;736.40;;;683.13;;
2576;SDS011;1298;51.252;6.802;2023-07-31T12:13:25;772.50;;;718.00;;
2576;SDS011;1298;51.252;6.802;2023-07-31T12:16:13;737.17;;;683.95;;
2576;SDS011;1298;51.252;6.802;2023-07-31T12:18:58;774.60;;;720.22;;
2576;SDS011;1298;51.252;6.802;2023-07-31T12:21:44;817.00;;;761.47;;
2576;SDS011;1298;51.252;6.802;2023-07-31T12:24:30;772.05;;;717.80;;
2576;SDS011;1298;51.252;6.802;2023-07-31T12:27:15;751.88;;;697.83;;
2576;SDS011;1298;51.252;6.802;2023-07-31T12:30:02;758.72;;;704.80;;
2576;SDS011;1298;51.252;6.802;2023-07-31T12:32:50;749.80;;;696.28;;
2576;SDS011;1298;51.252;6.802;2023-07-31T12:35:36;728.22;;;675.33;;
2576;SDS011;1298;51.252;6.802;2023-07-31T12:38:22;820.15;;;764.75;;
2576;SDS011;1298;51.252;6.802;2023-07-31T12:41:08;823.83;;;768.42;;
2576;SDS011;1298;51.252;6.802;2023-07-31T12:43:53;730.10;;;677.40;;
2576;SDS011;1298;51.252;6.802;2023-07-31T12:46:39;719.78;;;667.08;;
2576;SDS011;1298;51.252;6.802;2023-07-31T12:49:27;726.58;;;673.72;;
2576;SDS011;1298;51.252;6.802;2023-07-31T12:52:12;726.05;;;673.08;;
2576;SDS011;1298;51.252;6.802;2023-07-31T12:54:58;735.72;;;682.63;;
2576;SDS011;1298;51.252;6.802;2023-07-31T12:57:43;738.47;;;685.33;;
2576;SDS011;1298;51.252;6.802;2023-07-31T13:00:30;733.20;;;679.60;;
2576;SDS011;1298;51.252;6.802;2023-07-31T13:03:15;763.00;;;709.08;;
2576;SDS011;1298;51.252;6.802;2023-07-31T13:06:02;741.35;;;688.17;;
2576;SDS011;1298;51.252;6.802;2023-07-31T13:08:49;818.33;;;762.28;;
2576;SDS011;1298;51.252;6.802;2023-07-31T13:11:34;748.85;;;695.53;;
2576;SDS011;1298;51.252;6.802;2023-07-31T13:14:20;738.10;;;684.78;;
2576;SDS011;1298;51.252;6.802;2023-07-31T13:17:06;837.40;;;781.25;;
2576;SDS011;1298;51.252;6.802;2023-07-31T13:19:51;757.25;;;703.47;;
2576;SDS011;1298;51.252;6.802;2023-07-31T13:22:38;795.22;;;739.95;;
2576;SDS011;1298;51.252;6.802;2023-07-31T13:25:24;758.63;;;704.78;;
2576;SDS011;1298;51.252;6.802;2023-07-31T13:28:09;780.60;;;725.90;;
2576;SDS011;1298;51.252;6.802;2023-07-31T13:30:55;776.92;;;722.45;;
2576;SDS011;1298;51.252;6.802;2023-07-31T13:33:41;799.13;;;744.00;;
2576;SDS011;1298;51.252;6.802;2023-07-31T13:36:26;778.45;;;723.67;;
2576;SDS011;1298;51.252;6.802;2023-07-31T13:39:13;797.13;;;741.88;;
2576;SDS011;1298;51.252;6.802;2023-07-31T13:41:59;853.33;;;796.35;;
2576;SDS011;1298;51.252;6.802;2023-07-31T13:44:45;820.67;;;764.75;;
2576;SDS011;1298;51.252;6.802;2023-07-31T13:47:31;783.95;;;728.78;;
2576;SDS011;1298;51.252;6.802;2023-07-31T13:50:17;825.05;;;768.70;;
2576;SDS011;1298;51.252;6.802;2023-07-31T13:53:04;828.35;;;772.33;;
2576;SDS011;1298;51.252;6.802;2023-07-31T13:55:51;903.47;;;844.85;;
2576;SDS011;1298;51.252;6.802;2023-07-31T13:58:39;792.45;;;737.50;;
2576;SDS011;1298;51.252;6.802;2023-07-31T14:01:25;798.40;;;743.08;;
2576;SDS011;1298;51.252;6.802;2023-07-31T14:04:11;792.63;;;737.85;;
2576;SDS011;1298;51.252;6.802;2023-07-31T14:06:57;813.67;;;758.05;;
2576;SDS011;1298;51.252;6.802;2023-07-31T14:09:43;810.90;;;755.08;;
2576;SDS011;1298;51.252;6.802;2023-07-31T14:12:30;860.92;;;803.92;;
2576;SDS011;1298;51.252;6.802;2023-07-31T14:15:16;817.78;;;762.03;;
2576;SDS011;1298;51.252;6.802;2023-07-31T14:18:01;803.97;;;748.70;;
2576;SDS011;1298;51.252;6.802;2023-07-31T14:20:47;865.72;;;808.30;;
2576;SDS011;1298;51.252;6.802;2023-07-31T14:23:32;781.63;;;727.20;;
2576;SDS011;1298;51.252;6.802;2023-07-31T14:26:18;813.58;;;758.20;;
2576;SDS011;1298;51.252;6.802;2023-07-31T14:29:05;875.92;;;818.42;;
2576;SDS011;1298;51.252;6.802;2023-07-31T14:31:51;783.42;;;728.63;;
2576;SDS011;1298;51.252;6.802;2023-07-31T14:34:36;876.92;;;819.47;;
2576;SDS011;1298;51.252;6.802;2023-07-31T14:37:22;794.03;;;739.20;;
2576;SDS011;1298;51.252;6.802;2023-07-31T14:40:12;865.28;;;808.33;;
2576;SDS011;1298;51.252;6.802;2023-07-31T14:42:58;770.55;;;716.28;;
2576;SDS011;1298;51.252;6.802;2023-07-31T14:45:45;763.65;;;709.40;;
2576;SDS011;1298;51.252;6.802;2023-07-31T14:48:31;806.30;;;750.88;;
2576;SDS011;1298;51.252;6.802;2023-07-31T14:51:16;772.60;;;718.53;;
2576;SDS011;1298;51.252;6.802;2023-07-31T14:54:02;792.72;;;737.88;;
2576;SDS011;1298;51.252;6.802;2023-07-31T14:56:47;844.72;;;788.15;;
2576;SDS011;1298;51.252;6.802;2023-07-31T14:59:33;770.55;;;716.15;;
2576;SDS011;1298;51.252;6.802;2023-07-31T15:02:20;797.47;;;742.05;;
2576;SDS011;1298;51.252;6.802;2023-07-31T15:05:06;771.50;;;717.53;;
2576;SDS011;1298;51.252;6.802;2023-07-31T15:07:53;876.30;;;818.67;;
2576;SDS011;1298;51.252;6.802;2023-07-31T15:10:38;794.33;;;739.35;;
2576;SDS011;1298;51.252;6.802;2023-07-31T15:13:24;801.70;;;746.65;;
2576;SDS011;1298;51.252;6.802;2023-07-31T15:16:10;876.20;;;818.85;;
2576;SDS011;1298;51.252;6.802;2023-07-31T15:18:57;804.53;;;749.05;;
2576;SDS011;1298;51.252;6.802;2023-07-31T15:21:42;821.15;;;764.95;;
2576;SDS011;1298;51.252;6.802;2023-07-31T15:24:28;799.90;;;744.67;;
2576;SDS011;1298;51.252;6.802;2023-07-31T15:27:13;880.05;;;822.22;;
2576;SDS011;1298;51.252;6.802;2023-07-31T15:29:59;796.88;;;741.85;;
2576;SDS011;1298;51.252;6.802;2023-07-31T15:32:45;783.17;;;728.88;;
2576;SDS011;1298;51.252;6.802;2023-07-31T15:35:33;871.22;;;814.15;;
2576;SDS011;1298;51.252;6.802;2023-07-31T15:38:18;858.22;;;801.67;;
2576;SDS011;1298;51.252;6.802;2023-07-31T15:41:04;849.10;;;792.72;;
2576;SDS011;1298;51.252;6.802;2023-07-31T15:43:49;770.53;;;716.30;;
2576;SDS011;1298;51.252;6.802;2023-07-31T15:46:35;810.17;;;754.50;;
2576;SDS011;1298;51.252;6.802;2023-07-31T15:49:21;799.75;;;744.50;;
2576;SDS011;1298;51.252;6.802;2023-07-31T15:52:08;802.28;;;747.30;;
2576;SDS011;1298;51.252;6.802;2023-07-31T15:54:53;863.47;;;806.60;;
2576;SDS011;1298;51.252;6.802;2023-07-31T15:57:39;768.75;;;714.85;;
2576;SDS011;1298;51.252;6.802;2023-07-31T16:00:25;759.00;;;705.28;;
2576;SDS011;1298;51.252;6.802;2023-07-31T16:03:10;788.45;;;733.65;;
2576;SDS011;1298;51.252;6.802;2023-07-31T16:05:56;836.05;;;780.10;;
2576;SDS011;1298;51.252;6.802;2023-07-31T16:08:43;772.70;;;718.30;;
2576;SDS011;1298;51.252;6.802;2023-07-31T16:11:28;855.15;;;797.35;;
2576;SDS011;1298;51.252;6.802;2023-07-31T16:14:14;784.40;;;730.05;;